Terminal Aerodrome Forecast
Issued by NWS

Home | Current Version | Previous Version | Text Only | Print | Product List | Glossary On
Versions: 1 2 3 4 5 6 7 8 9 10 11 12 13 14 15 16 17
000
FTUS42 KTBW 211700
TAFLAL
TAF
KLAL 211740Z 2118/2218 VRB04KT P6SM VCTS SCT035CB BKN250
     FM220000 VRB03KT P6SM FEW030 BKN250
     FM221000 VRB03KT P6SM FEW020 BKN150
     FM221400 VRB03KT P6SM VCSH SCT020 BKN100=

USA.gov is the U.S. government's official web portal to all federal, state and local government web resources and services.